createdAt,value
2017-07-04T00:00:31.915Z,99563.55
2017-07-04T00:02:59.038Z,99566.23
2017-07-04T00:05:26.110Z,99561.89
2017-07-04T00:07:53.182Z,99559.78
2017-07-04T00:10:20.304Z,99558.14
2017-07-04T00:12:47.378Z,99558.62
2017-07-04T00:15:14.458Z,99559.48
2017-07-04T00:17:41.602Z,99557.27
2017-07-04T00:20:08.682Z,99564.73
2017-07-04T00:22:35.769Z,99556.16
2017-07-04T00:25:02.890Z,99555.62
2017-07-04T00:27:29.967Z,99557.41
2017-07-04T00:29:57.042Z,99556.16
2017-07-04T00:32:24.197Z,99545.67
2017-07-04T00:34:51.294Z,99544.73
2017-07-04T00:37:18.453Z,99546.05
2017-07-04T00:39:45.562Z,99548.22
2017-07-04T00:42:12.773Z,99545.61
2017-07-04T00:44:39.846Z,99547.78
2017-07-04T00:47:06.955Z,99542.97
2017-07-04T00:49:34.131Z,99546.88
2017-07-04T00:52:01.210Z,99550.41
2017-07-04T00:54:28.349Z,99545.19
2017-07-04T00:56:55.419Z,99545.24
2017-07-04T00:59:22.495Z,99542.27
2017-07-04T01:01:49.605Z,99545.37
2017-07-04T01:04:16.674Z,99543.60
2017-07-04T01:06:43.740Z,99546.63
2017-07-04T01:09:10.869Z,99543.87
2017-07-04T01:11:37.941Z,99546.92
2017-07-04T01:14:05.053Z,99552.22
2017-07-04T01:16:32.169Z,99548.22
2017-07-04T01:18:59.246Z,99545.19
2017-07-04T01:21:26.338Z,99545.16
2017-07-04T01:23:53.446Z,99545.32
2017-07-04T01:26:20.534Z,99542.80
2017-07-04T01:28:47.608Z,99536.95
2017-07-04T01:31:14.720Z,99536.63
2017-07-04T01:33:41.829Z,99540.30
2017-07-04T01:36:08.902Z,99541.17
2017-07-04T01:38:36.028Z,99541.61
2017-07-04T01:41:03.097Z,99539.09
2017-07-04T01:43:30.174Z,99538.10
2017-07-04T01:45:57.286Z,99539.95
2017-07-04T01:48:24.475Z,99539.97
2017-07-04T01:50:51.542Z,99537.45
2017-07-04T01:53:18.671Z,99534.36
2017-07-04T01:55:45.742Z,99534.73
2017-07-04T01:58:12.815Z,99531.48
2017-07-04T02:00:39.919Z,99535.05
2017-07-04T02:03:07.025Z,99532.69
2017-07-04T02:05:34.104Z,99533.50
2017-07-04T02:08:01.238Z,99537.55
2017-07-04T02:10:28.329Z,99530.22
2017-07-04T02:12:55.399Z,99538.58
2017-07-04T02:15:23.373Z,99526.80
2017-07-04T02:17:50.496Z,99532.84
2017-07-04T02:20:17.574Z,99533.62
2017-07-04T02:22:44.694Z,99534.63
2017-07-04T02:25:11.763Z,99534.23
2017-07-04T02:27:38.828Z,99534.91
2017-07-04T02:30:05.942Z,99527.98
2017-07-04T02:32:33.013Z,99533.57
2017-07-04T02:35:00.086Z,99525.73
2017-07-04T02:37:27.201Z,99527.13
2017-07-04T02:39:54.274Z,99536.30
2017-07-04T02:42:21.347Z,99534.98
2017-07-04T02:44:48.455Z,99533.32
2017-07-04T02:47:15.529Z,99535.45
2017-07-04T02:49:42.597Z,99536.31
2017-07-04T02:52:09.723Z,99530.39
2017-07-04T02:54:36.785Z,99528.81
2017-07-04T02:57:03.859Z,99531.92
2017-07-04T02:59:30.989Z,99524.45
2017-07-04T03:01:58.078Z,99531.02
2017-07-04T03:04:25.179Z,99534.45
2017-07-04T03:06:52.297Z,99527.95
2017-07-04T03:09:19.365Z,99530.22
2017-07-04T03:11:46.430Z,99530.80
2017-07-04T03:14:13.540Z,99536.19
2017-07-04T03:16:40.610Z,99540.90
2017-07-04T03:19:07.685Z,99529.69
2017-07-04T03:21:34.794Z,99533.14
2017-07-04T03:24:01.867Z,99531.68
2017-07-04T03:26:28.937Z,99530.80
2017-07-04T03:28:56.059Z,99533.52
2017-07-04T03:31:23.132Z,99541.38
2017-07-04T03:33:50.202Z,99536.14
2017-07-04T03:36:17.308Z,99545.69
2017-07-04T03:38:44.381Z,99543.06
2017-07-04T03:41:11.467Z,99544.80
2017-07-04T03:43:38.577Z,99540.02
2017-07-04T03:46:05.647Z,99544.37
2017-07-04T03:48:32.717Z,99546.09
2017-07-04T03:50:59.832Z,99543.95
2017-07-04T03:53:26.908Z,99546.13
2017-07-04T03:55:53.989Z,99552.73
2017-07-04T03:58:21.105Z,99555.30
2017-07-04T04:00:48.181Z,99556.57
2017-07-04T04:03:15.269Z,99558.86
2017-07-04T04:05:42.402Z,99563.59
2017-07-04T04:08:09.487Z,99559.56
2017-07-04T04:10:36.572Z,99558.25
2017-07-04T04:13:03.711Z,99561.95
2017-07-04T04:15:30.781Z,99561.91
2017-07-04T04:17:57.856Z,99565.41
2017-07-04T04:20:24.966Z,99569.34
2017-07-04T04:22:52.037Z,99571.55
2017-07-04T04:25:19.111Z,99571.09
2017-07-04T04:27:46.245Z,99574.45
2017-07-04T04:30:13.339Z,99572.29
2017-07-04T04:32:40.411Z,99577.02
2017-07-04T04:35:07.533Z,99574.45
2017-07-04T04:37:34.614Z,99580.90
2017-07-04T04:40:01.682Z,99575.66
2017-07-04T04:42:28.798Z,99576.46
2017-07-04T04:44:55.887Z,99579.43
2017-07-04T04:47:22.969Z,99587.09
2017-07-04T04:49:50.078Z,99582.28
2017-07-04T04:52:17.150Z,99585.31
2017-07-04T04:54:44.230Z,99581.32
2017-07-04T04:57:11.354Z,99577.06
2017-07-04T04:59:38.434Z,99578.73
2017-07-04T05:02:05.558Z,99586.19
2017-07-04T05:04:32.669Z,99590.09
2017-07-04T05:06:59.795Z,99587.02
2017-07-04T05:09:26.878Z,99587.05
2017-07-04T05:11:53.988Z,99581.78
2017-07-04T05:14:21.066Z,99590.83
2017-07-04T05:16:48.152Z,99577.75
2017-07-04T05:19:15.266Z,99587.27
2017-07-04T05:21:42.350Z,99593.45
2017-07-04T05:24:09.429Z,99589.91
2017-07-04T05:26:36.550Z,99588.16
2017-07-04T05:29:03.629Z,99592.08
2017-07-04T05:31:30.715Z,99597.73
2017-07-04T05:33:57.863Z,99593.72
2017-07-04T05:36:24.941Z,99605.52
2017-07-04T05:38:52.019Z,99601.56
2017-07-04T05:41:19.145Z,99607.23
2017-07-04T05:43:46.222Z,99600.20
2017-07-04T05:46:13.293Z,99599.72
2017-07-04T05:48:40.474Z,99602.72
2017-07-04T05:51:07.545Z,99607.05
2017-07-04T05:53:34.612Z,99610.58
2017-07-04T05:56:01.725Z,99611.87
2017-07-04T05:58:28.797Z,99607.05
2017-07-04T06:00:55.881Z,99597.43
2017-07-04T06:03:23.002Z,99605.23
2017-07-04T06:05:50.080Z,99609.15
2017-07-04T06:08:17.165Z,99606.95
2017-07-04T06:10:44.298Z,99603.02
2017-07-04T06:13:11.376Z,99606.88
2017-07-04T06:15:38.452Z,99599.46
2017-07-04T06:18:05.573Z,99607.28
2017-07-04T06:20:32.647Z,99601.18
2017-07-04T06:22:59.730Z,99607.28
2017-07-04T06:25:26.879Z,99610.28
2017-07-04T06:27:53.963Z,99606.77
2017-07-04T06:30:21.036Z,99609.80
2017-07-04T06:32:48.148Z,99609.31
2017-07-04T06:35:15.234Z,99610.69
2017-07-04T06:37:42.305Z,99613.68
2017-07-04T06:40:09.423Z,99615.42
2017-07-04T06:42:36.503Z,99613.30
2017-07-04T06:45:03.584Z,99616.73
2017-07-04T06:47:30.724Z,99619.30
2017-07-04T06:49:57.803Z,99616.69
2017-07-04T06:52:24.955Z,99624.04
2017-07-04T06:54:52.087Z,99625.78
2017-07-04T06:57:19.164Z,99620.53
2017-07-04T06:59:46.250Z,99618.34
2017-07-04T07:02:13.384Z,99620.97
2017-07-04T07:04:40.467Z,99621.39
2017-07-04T07:07:07.610Z,99612.24
2017-07-04T07:09:34.729Z,99613.13
2017-07-04T07:12:01.818Z,99613.13
2017-07-04T07:14:28.892Z,99617.86
2017-07-04T07:16:56.002Z,99623.59
2017-07-04T07:19:23.077Z,99623.08
2017-07-04T07:21:50.158Z,99619.14
2017-07-04T07:24:17.287Z,99618.27
2017-07-04T07:26:44.403Z,99623.05
2017-07-04T07:29:11.473Z,99620.81
2017-07-04T07:31:38.611Z,99612.94
2017-07-04T07:34:05.690Z,99617.73
2017-07-04T07:36:32.757Z,99619.91
2017-07-04T07:38:59.898Z,99620.25
2017-07-04T07:41:27.040Z,99618.48
2017-07-04T07:43:54.121Z,99620.17
2017-07-04T07:46:21.264Z,99613.62
2017-07-04T07:48:48.342Z,99618.92
2017-07-04T07:51:15.423Z,99614.98
2017-07-04T07:53:42.534Z,99617.98
2017-07-04T07:56:09.619Z,99611.91
2017-07-04T07:58:36.694Z,99616.22
2017-07-04T08:01:03.814Z,99624.00
2017-07-04T08:03:30.890Z,99619.25
2017-07-04T08:05:57.969Z,99618.31
2017-07-04T08:08:25.111Z,99608.33
2017-07-04T08:10:52.189Z,99605.22
2017-07-04T08:13:19.270Z,99606.48
2017-07-04T08:15:46.386Z,99606.95
2017-07-04T08:18:13.569Z,99608.25
2017-07-04T08:20:40.651Z,99614.30
2017-07-04T08:23:07.783Z,99600.30
2017-07-04T08:25:34.855Z,99608.59
2017-07-04T08:28:01.939Z,99612.09
2017-07-04T08:30:29.085Z,99602.90
2017-07-04T08:32:56.153Z,99605.97
2017-07-04T08:35:23.227Z,99608.14
2017-07-04T08:37:50.361Z,99607.63
2017-07-04T08:40:17.437Z,99599.77
2017-07-04T08:42:44.515Z,99597.20
2017-07-04T08:45:11.644Z,99601.08
2017-07-04T08:47:38.731Z,99598.94
2017-07-04T08:50:05.834Z,99599.31
2017-07-04T08:52:32.982Z,99600.17
2017-07-04T08:55:00.067Z,99601.03
2017-07-04T08:57:27.155Z,99603.59
2017-07-04T08:59:54.270Z,99600.14
2017-07-04T09:02:21.349Z,99601.89
2017-07-04T09:04:48.438Z,99601.89
2017-07-04T09:07:15.554Z,99602.27
2017-07-04T09:09:42.637Z,99603.14
2017-07-04T09:12:09.709Z,99603.57
2017-07-04T09:14:36.823Z,99595.25
2017-07-04T09:17:03.924Z,99599.19
2017-07-04T09:19:31.014Z,99593.91
2017-07-04T09:21:58.154Z,99599.53
2017-07-04T09:24:25.234Z,99597.84
2017-07-04T09:26:52.335Z,99600.84
2017-07-04T09:29:19.464Z,99596.89
2017-07-04T09:31:46.553Z,99594.72
2017-07-04T09:34:13.639Z,99592.47
2017-07-04T09:36:40.780Z,99591.64
2017-07-04T09:39:07.845Z,99588.08
2017-07-04T09:41:34.921Z,99596.80
2017-07-04T09:44:02.061Z,99589.39
2017-07-04T09:46:29.140Z,99594.61
2017-07-04T09:48:56.221Z,99590.66
2017-07-04T09:51:23.359Z,99581.47
2017-07-04T09:53:50.436Z,99581.05
2017-07-04T09:56:17.518Z,99578.36
2017-07-04T09:58:44.638Z,99584.47
2017-07-04T10:01:11.711Z,99585.78
2017-07-04T10:03:38.797Z,99583.13
2017-07-04T10:06:05.910Z,99577.88
2017-07-04T10:08:33.001Z,99579.63
2017-07-04T10:11:00.082Z,99581.37
2017-07-04T10:13:27.194Z,99580.00
2017-07-04T10:15:54.275Z,99579.56
2017-07-04T10:18:21.346Z,99582.17
2017-07-04T10:20:48.468Z,99572.98
2017-07-04T10:23:15.547Z,99577.33
2017-07-04T10:25:42.617Z,99570.77
2017-07-04T10:28:09.745Z,99565.92
2017-07-04T10:30:36.822Z,99568.09
2017-07-04T10:33:03.906Z,99561.08
2017-07-04T10:35:31.013Z,99557.12
2017-07-04T10:37:58.088Z,99560.99
2017-07-04T10:40:25.179Z,99562.76
2017-07-04T10:42:52.315Z,99558.80
2017-07-04T10:45:19.398Z,99565.77
2017-07-04T10:47:46.479Z,99563.14
2017-07-04T10:50:13.613Z,99557.87
2017-07-04T10:52:40.687Z,99556.98
2017-07-04T10:55:07.757Z,99561.32
2017-07-04T10:57:34.877Z,99555.62
2017-07-04T11:00:01.950Z,99547.33
2017-07-04T11:02:29.083Z,99549.06
2017-07-04T11:04:56.224Z,99545.07
2017-07-04T11:07:23.297Z,99544.61
2017-07-04T11:09:50.376Z,99545.47
2017-07-04T11:12:17.517Z,99536.72
2017-07-04T11:14:44.592Z,99541.03
2017-07-04T11:17:11.676Z,99539.28
2017-07-04T11:19:38.792Z,99537.01
2017-07-04T11:22:05.872Z,99532.25
2017-07-04T11:24:32.947Z,99529.99
2017-07-04T11:27:00.086Z,99531.71
2017-07-04T11:29:27.159Z,99529.11
2017-07-04T11:31:54.239Z,99526.89
2017-07-04T11:34:21.387Z,99526.01
2017-07-04T11:36:48.466Z,99528.63
2017-07-04T11:39:15.537Z,99527.27
2017-07-04T11:41:42.675Z,99524.16
2017-07-04T11:44:09.762Z,99526.78
2017-07-04T11:46:36.849Z,99521.98
2017-07-04T11:49:03.981Z,99516.23
2017-07-04T11:51:31.059Z,99518.03
2017-07-04T11:53:58.210Z,99511.84
2017-07-04T11:56:25.361Z,99515.75
2017-07-04T11:58:52.438Z,99510.50
2017-07-04T12:01:19.543Z,99507.81
2017-07-04T12:03:46.659Z,99512.61
2017-07-04T12:06:13.758Z,99501.20
2017-07-04T12:08:40.845Z,99503.40
2017-07-04T12:11:07.958Z,99501.58
2017-07-04T12:13:35.032Z,99491.08
2017-07-04T12:16:02.116Z,99497.61
2017-07-04T12:18:29.230Z,99493.66
2017-07-04T12:20:56.321Z,99494.05
2017-07-04T12:23:23.428Z,99489.28
2017-07-04T12:25:50.573Z,99492.80
2017-07-04T12:28:17.645Z,99488.80
2017-07-04T12:30:44.719Z,99496.64
2017-07-04T12:33:11.845Z,99491.83
2017-07-04T12:35:38.927Z,99489.20
2017-07-04T12:38:06.002Z,99488.29
2017-07-04T12:40:33.153Z,99489.17
2017-07-04T12:43:00.247Z,99489.60
2017-07-04T12:45:27.334Z,99486.03
2017-07-04T12:47:54.467Z,99481.64
2017-07-04T12:50:21.570Z,99481.64
2017-07-04T12:52:48.651Z,99473.31
2017-07-04T12:55:15.776Z,99475.08
2017-07-04T12:57:42.854Z,99477.20
2017-07-04T13:00:09.931Z,99474.11
2017-07-04T13:02:37.056Z,99477.17
2017-07-04T13:05:04.151Z,99481.96
2017-07-04T13:07:31.226Z,99479.70
2017-07-04T13:09:58.343Z,99474.03
2017-07-04T13:12:25.429Z,99471.41
2017-07-04T13:14:52.510Z,99471.80
2017-07-04T13:17:19.645Z,99465.67
2017-07-04T13:19:46.715Z,99468.23
2017-07-04T13:22:13.790Z,99464.73
2017-07-04T13:24:40.903Z,99465.16
2017-07-04T13:27:07.974Z,99466.87
2017-07-04T13:29:35.047Z,99465.98
2017-07-04T13:32:02.153Z,99464.16
2017-07-04T13:34:29.221Z,99462.82
2017-07-04T13:36:56.361Z,99460.56
2017-07-04T13:39:23.433Z,99453.58
2017-07-04T13:41:50.509Z,99444.36
2017-07-04T13:44:17.639Z,99446.47
2017-07-04T13:46:44.714Z,99444.34
2017-07-04T13:49:11.791Z,99448.21
2017-07-04T13:51:38.931Z,99445.13
2017-07-04T13:54:06.012Z,99450.36
2017-07-04T13:56:33.087Z,99441.59
2017-07-04T13:59:00.210Z,99438.91
2017-07-04T14:01:27.287Z,99441.96
2017-07-04T14:03:54.365Z,99442.82
2017-07-04T14:06:21.475Z,99441.05
2017-07-04T14:08:48.570Z,99441.48
2017-07-04T14:11:15.670Z,99439.23
2017-07-04T14:13:42.785Z,99433.06
2017-07-04T14:16:09.863Z,99436.12
2017-07-04T14:18:36.945Z,99431.23
2017-07-04T14:21:04.091Z,99438.68
2017-07-04T14:23:31.169Z,99440.82
2017-07-04T14:25:58.250Z,99443.02
2017-07-04T14:28:25.379Z,99438.63
2017-07-04T14:30:52.479Z,99438.63
2017-07-04T14:33:19.561Z,99430.69
2017-07-04T14:35:46.683Z,99433.31
2017-07-04T14:38:13.766Z,99430.14
2017-07-04T14:40:40.934Z,99423.16
2017-07-04T14:43:08.073Z,99425.75
2017-07-04T14:45:35.155Z,99419.09
2017-07-04T14:48:02.243Z,99425.63
2017-07-04T14:50:29.370Z,99414.25
2017-07-04T14:52:56.461Z,99412.42
2017-07-04T14:55:23.573Z,99417.64
2017-07-04T14:57:50.790Z,99416.30
2017-07-04T15:00:17.858Z,99415.36
2017-07-04T15:02:44.943Z,99406.59
2017-07-04T15:05:12.075Z,99407.45
2017-07-04T15:07:39.151Z,99407.42
2017-07-04T15:10:06.225Z,99404.31
2017-07-04T15:12:33.362Z,99412.59
2017-07-04T15:15:00.436Z,99406.87
2017-07-04T15:17:27.534Z,99409.50
2017-07-04T15:19:54.665Z,99405.93
2017-07-04T15:22:21.737Z,99407.24
2017-07-04T15:24:48.832Z,99409.84
2017-07-04T15:27:15.962Z,99408.95
2017-07-04T15:29:43.043Z,99405.87
2017-07-04T15:32:10.133Z,99400.13
2017-07-04T15:34:37.280Z,99400.56
2017-07-04T15:37:04.361Z,99399.67
2017-07-04T15:39:31.448Z,99397.02
2017-07-04T15:41:58.593Z,99396.53
2017-07-04T15:44:25.680Z,99389.94
2017-07-04T15:46:52.756Z,99385.97
2017-07-04T15:49:19.896Z,99393.42
2017-07-04T15:51:46.969Z,99388.14
2017-07-04T15:54:14.036Z,99386.31
2017-07-04T15:56:41.172Z,99385.88
2017-07-04T15:59:08.255Z,99380.17
2017-07-04T16:01:35.335Z,99374.46
2017-07-04T16:04:02.458Z,99373.95
2017-07-04T16:06:29.533Z,99370.83
2017-07-04T16:08:56.613Z,99372.94
2017-07-04T16:11:23.738Z,99371.17
2017-07-04T16:13:50.820Z,99370.22
2017-07-04T16:16:17.894Z,99368.91
2017-07-04T16:18:45.005Z,99362.77
2017-07-04T16:21:12.081Z,99364.91
2017-07-04T16:23:39.163Z,99367.91
2017-07-04T16:26:06.300Z,99360.91
2017-07-04T16:28:33.374Z,99363.88
2017-07-04T16:31:00.454Z,99360.98
2017-07-04T16:33:27.618Z,99359.05
2017-07-04T16:35:54.695Z,99356.85
2017-07-04T16:38:21.782Z,99363.78
2017-07-04T16:40:48.910Z,99354.07
2017-07-04T16:43:15.993Z,99360.52
2017-07-04T16:45:43.068Z,99363.05
2017-07-04T16:48:10.204Z,99359.08
2017-07-04T16:50:37.281Z,99351.98
2017-07-04T16:53:04.360Z,99356.36
2017-07-04T16:55:31.502Z,99357.19
2017-07-04T16:57:58.578Z,99358.41
2017-07-04T17:00:25.656Z,99359.63
2017-07-04T17:02:52.791Z,99351.71
2017-07-04T17:05:19.866Z,99353.82
2017-07-04T17:07:46.944Z,99360.36
2017-07-04T17:10:14.070Z,99350.25
2017-07-04T17:12:41.155Z,99354.55
2017-07-04T17:15:08.230Z,99348.75
2017-07-04T17:17:35.350Z,99354.40
2017-07-04T17:20:02.428Z,99359.16
2017-07-04T17:22:29.511Z,99354.76
2017-07-04T17:24:56.632Z,99356.05
2017-07-04T17:27:23.726Z,99351.13
2017-07-04T17:29:50.817Z,99354.17
2017-07-04T17:32:18.049Z,99351.09
2017-07-04T17:34:45.126Z,99356.71
2017-07-04T17:37:12.195Z,99362.83
2017-07-04T17:39:39.331Z,99352.70
2017-07-04T17:42:06.410Z,99359.64
2017-07-04T17:44:33.503Z,99359.15
2017-07-04T17:47:00.645Z,99356.92
2017-07-04T17:49:27.729Z,99357.31
2017-07-04T17:51:54.811Z,99355.48
2017-07-04T17:54:22.157Z,99349.83
2017-07-04T17:56:49.251Z,99351.05
2017-07-04T17:59:16.483Z,99353.16
2017-07-04T18:01:43.695Z,99350.95
2017-07-04T18:04:10.809Z,99344.38
2017-07-04T18:06:37.899Z,99352.59
2017-07-04T18:09:05.038Z,99347.28
2017-07-04T18:11:32.109Z,99350.34
2017-07-04T18:13:59.186Z,99345.02
2017-07-04T18:16:27.174Z,99346.33
2017-07-04T18:18:54.263Z,99348.10
2017-07-04T18:21:21.341Z,99346.76
2017-07-04T18:23:48.473Z,99337.95
2017-07-04T18:26:15.564Z,99344.89
2017-07-04T18:28:42.647Z,99346.59
2017-07-04T18:31:09.778Z,99335.23
2017-07-04T18:33:36.860Z,99339.17
2017-07-04T18:36:03.936Z,99339.17
2017-07-04T18:38:31.350Z,99340.06
2017-07-04T18:40:58.431Z,99340.06
2017-07-04T18:43:25.510Z,99336.94
2017-07-04T18:45:52.647Z,99341.67
2017-07-04T18:48:19.725Z,99334.58
2017-07-04T18:50:46.898Z,99332.44
2017-07-04T18:53:14.022Z,99340.23
2017-07-04T18:55:41.103Z,99341.09
2017-07-04T18:58:08.178Z,99342.34
2017-07-04T19:00:35.295Z,99338.03
2017-07-04T19:03:02.373Z,99332.31
2017-07-04T19:05:29.453Z,99336.20
2017-07-04T19:07:56.573Z,99340.23
2017-07-04T19:10:23.659Z,99340.27
2017-07-04T19:12:50.744Z,99338.59
2017-07-04T19:15:17.871Z,99339.47
2017-07-04T19:17:44.946Z,99339.02
2017-07-04T19:20:12.029Z,99349.44
2017-07-04T19:22:39.161Z,99342.47
2017-07-04T19:25:06.244Z,99342.45
2017-07-04T19:27:33.334Z,99344.83
2017-07-04T19:30:00.478Z,99350.97
2017-07-04T19:32:27.555Z,99346.83
2017-07-04T19:34:54.640Z,99349.89
2017-07-04T19:37:21.767Z,99353.10
2017-07-04T19:39:48.858Z,99349.68
2017-07-04T19:42:15.947Z,99349.71
2017-07-04T19:44:43.078Z,99354.09
2017-07-04T19:47:10.154Z,99361.55
2017-07-04T19:49:37.242Z,99359.90
2017-07-04T19:52:04.371Z,99365.68
2017-07-04T19:54:31.454Z,99373.59
2017-07-04T19:56:58.535Z,99373.14
2017-07-04T19:59:25.671Z,99368.34
2017-07-04T20:01:52.750Z,99374.52
2017-07-04T20:04:19.836Z,99378.43
2017-07-04T20:06:47.109Z,99378.46
2017-07-04T20:09:14.235Z,99379.77
2017-07-04T20:11:41.316Z,99386.31
2017-07-04T20:14:08.453Z,99381.58
2017-07-04T20:16:35.528Z,99382.75
2017-07-04T20:19:02.596Z,99382.45
2017-07-04T20:21:29.706Z,99377.81
2017-07-04T20:23:56.780Z,99385.17
2017-07-04T20:26:23.862Z,99382.97
2017-07-04T20:28:51.035Z,99388.13
2017-07-04T20:31:18.234Z,99393.45
2017-07-04T20:33:45.322Z,99386.45
2017-07-04T20:36:12.461Z,99387.77
2017-07-04T20:38:39.551Z,99390.00
2017-07-04T20:41:06.629Z,99393.52
2017-07-04T20:43:33.750Z,99389.70
2017-07-04T20:46:00.927Z,99387.95
2017-07-04T20:48:28.008Z,99385.39
2017-07-04T20:50:55.175Z,99385.75
2017-07-04T20:53:22.278Z,99387.13
2017-07-04T20:55:49.351Z,99387.07
2017-07-04T20:58:16.577Z,99387.92
2017-07-04T21:00:43.655Z,99383.98
2017-07-04T21:03:10.739Z,99379.19
2017-07-04T21:05:38.027Z,99386.76
2017-07-04T21:08:05.097Z,99386.02
2017-07-04T21:10:32.188Z,99383.84
2017-07-04T21:12:59.315Z,99381.08
2017-07-04T21:15:26.395Z,99388.26
2017-07-04T21:17:53.487Z,99389.80
2017-07-04T21:20:20.614Z,99390.34
2017-07-04T21:22:47.689Z,99389.70
2017-07-04T21:25:14.768Z,99388.64
2017-07-04T21:27:41.968Z,99394.48
2017-07-04T21:30:09.052Z,99397.63
2017-07-04T21:32:36.152Z,99392.25
2017-07-04T21:35:03.270Z,99395.58
2017-07-04T21:37:30.347Z,99390.11
2017-07-04T21:39:57.425Z,99396.80
2017-07-04T21:42:24.554Z,99387.73
2017-07-04T21:44:51.654Z,99390.36
2017-07-04T21:47:18.740Z,99381.10
2017-07-04T21:49:45.858Z,99398.15
2017-07-04T21:52:12.938Z,99394.20
2017-07-04T21:54:40.117Z,99400.87
2017-07-04T21:57:07.244Z,99395.00
2017-07-04T21:59:34.352Z,99394.76
2017-07-04T22:02:01.428Z,99387.34
2017-07-04T22:04:28.556Z,99389.23
2017-07-04T22:06:55.640Z,99391.98
2017-07-04T22:09:22.715Z,99392.73
2017-07-04T22:11:49.850Z,99387.15
2017-07-04T22:14:16.926Z,99391.64
2017-07-04T22:16:44.003Z,99387.39
2017-07-04T22:19:11.114Z,99388.67
2017-07-04T22:21:38.216Z,99384.77
2017-07-04T22:24:05.307Z,99387.48
2017-07-04T22:26:32.445Z,99376.58
2017-07-04T22:28:59.523Z,99378.50
2017-07-04T22:31:26.606Z,99380.05
2017-07-04T22:33:53.746Z,99382.59
2017-07-04T22:36:20.846Z,99381.45
2017-07-04T22:38:47.923Z,99377.15
2017-07-04T22:41:15.047Z,99374.52
2017-07-04T22:43:42.121Z,99373.45
2017-07-04T22:46:09.193Z,99372.14
2017-07-04T22:48:36.323Z,99370.91
2017-07-04T22:51:03.519Z,99366.52
2017-07-04T22:53:30.615Z,99363.86
2017-07-04T22:55:57.766Z,99365.94
2017-07-04T22:58:24.842Z,99362.39
2017-07-04T23:00:51.941Z,99351.44
2017-07-04T23:03:19.082Z,99356.69
2017-07-04T23:05:46.165Z,99356.91
2017-07-04T23:08:13.254Z,99351.86
2017-07-04T23:10:40.372Z,99351.02
2017-07-04T23:13:07.448Z,99355.04
2017-07-04T23:15:34.733Z,99351.07
2017-07-04T23:18:01.846Z,99345.87
2017-07-04T23:20:28.931Z,99350.22
2017-07-04T23:22:56.010Z,99343.66
2017-07-04T23:25:23.140Z,99342.48
2017-07-04T23:27:50.219Z,99339.52
2017-07-04T23:30:17.325Z,99342.70
2017-07-04T23:32:44.442Z,99347.50
2017-07-04T23:35:11.524Z,99340.59
2017-07-04T23:37:38.603Z,99340.22
2017-07-04T23:40:05.739Z,99337.48
2017-07-04T23:42:32.873Z,99337.48
2017-07-04T23:44:59.950Z,99333.27
2017-07-04T23:47:27.128Z,99329.08
2017-07-04T23:49:54.219Z,99328.71
2017-07-04T23:52:21.290Z,99323.95
2017-07-04T23:54:48.406Z,99328.38
2017-07-04T23:57:15.491Z,99330.14
2017-07-04T23:59:42.565Z,99331.58
